Time,TemperatureF,DewpointF,PressureIn,WindDirection,WindDirectionDegrees,WindSpeedMPH,WindSpeedGustMPH,Humidity,HourlyPrecipIn,Conditions,Clouds,dailyrainin,SoftwareType,DateUTC
2013-02-21 00:07:00,3.7,-1.0,30.33,NW,319,2.0,8.0,80,0.00,,,0.00,weatherlink.com 1.10,2013-02-21 05:07:00,
2013-02-21 00:22:00,3.3,-2.0,30.33,NW,311,3.0,10.0,80,0.00,,,0.00,weatherlink.com 1.10,2013-02-21 05:22:00,
2013-02-21 00:37:00,2.9,-2.0,30.33,West,281,9.0,14.0,79,0.00,,,0.00,weatherlink.com 1.10,2013-02-21 05:37:00,
2013-02-21 00:52:00,2.5,-3.0,30.34,WNW,289,5.0,13.0,78,0.00,,,0.00,weatherlink.com 1.10,2013-02-21 05:52:00,
2013-02-21 01:07:00,2.1,-4.0,30.34,North,11,7.0,12.0,77,0.00,,,0.00,weatherlink.com 1.10,2013-02-21 06:07:00,
2013-02-21 01:22:00,1.8,-4.0,30.35,West,273,1.0,9.0,76,0.00,,,0.00,weatherlink.com 1.10,2013-02-21 06:22:00,
2013-02-21 01:37:00,1.6,-4.0,30.35,NNW,338,3.0,8.0,76,0.00,,,0.00,weatherlink.com 1.10,2013-02-21 06:37:00,
2013-02-21 02:17:00,0.9,-4.0,30.36,WNW,288,1.0,4.0,78,0.00,,,0.00,weatherlink.com 1.10,2013-02-21 07:17:00,
2013-02-21 02:34:00,0.6,-4.0,30.37,NNW,345,0.0,5.0,80,0.00,,,0.00,weatherlink.com 1.10,2013-02-21 07:34:00,
2013-02-21 02:52:00,0.0,-5.0,30.37,NW,307,0.0,2.0,81,0.00,,,0.00,weatherlink.com 1.10,2013-02-21 07:52:00,
2013-02-21 03:07:00,-1.0,-5.0,30.36,West,274,0.0,0.0,83,0.00,,,0.00,weatherlink.com 1.10,2013-02-21 08:07:00,
2013-02-21 03:23:00,-0.9,-5.0,30.37,NW,322,0.0,2.0,84,0.00,,,0.00,weatherlink.com 1.10,2013-02-21 08:23:00,
2013-02-21 03:38:00,-0.6,-4.0,30.37,NW,311,0.0,2.0,84,0.00,,,0.00,weatherlink.com 1.10,2013-02-21 08:38:00,
2013-02-21 03:53:00,-0.3,-4.0,30.37,WNW,300,0.0,3.0,84,0.00,,,0.00,weatherlink.com 1.10,2013-02-21 08:53:00,
2013-02-21 04:08:00,-0.1,-4.0,30.37,NNW,345,0.0,4.0,83,0.00,,,0.00,weatherlink.com 1.10,2013-02-21 09:08:00,
2013-02-21 04:23:00,-0.1,-4.0,30.38,WNW,299,2.0,5.0,83,0.00,,,0.00,weatherlink.com 1.10,2013-02-21 09:23:00,
2013-02-21 04:38:00,0.0,-4.0,30.39,North,8,2.0,4.0,82,0.00,,,0.00,weatherlink.com 1.10,2013-02-21 09:38:00,
2013-02-21 04:53:00,-0.1,-4.0,30.39,NW,309,0.0,3.0,82,0.00,,,0.00,weatherlink.com 1.10,2013-02-21 09:53:00,
2013-02-21 05:08:00,0.0,-4.0,30.40,NNW,336,3.0,6.0,82,0.00,,,0.00,weatherlink.com 1.10,2013-02-21 10:08:00,
2013-02-21 05:23:00,0.2,-4.0,30.41,WNW,295,0.0,6.0,82,0.00,,,0.00,weatherlink.com 1.10,2013-02-21 10:23:00,
2013-02-21 05:38:00,0.6,-4.0,30.41,WNW,291,3.0,5.0,82,0.00,,,0.00,weatherlink.com 1.10,2013-02-21 10:38:00,
2013-02-21 05:53:00,0.8,-4.0,30.42,WNW,290,0.0,5.0,81,0.00,,,0.00,weatherlink.com 1.10,2013-02-21 10:53:00,
2013-02-21 06:08:00,0.6,-4.0,30.42,North,9,0.0,3.0,81,0.00,,,0.00,weatherlink.com 1.10,2013-02-21 11:08:00,
2013-02-21 06:23:00,0.6,-4.0,30.42,NNW,329,1.0,4.0,82,0.00,,,0.00,weatherlink.com 1.10,2013-02-21 11:23:00,
2013-02-21 06:39:00,0.4,-4.0,30.43,North,9,1.0,5.0,82,0.00,,,0.00,weatherlink.com 1.10,2013-02-21 11:39:00,
2013-02-21 06:54:00,0.7,-4.0,30.43,North,354,1.0,4.0,82,0.00,,,0.00,weatherlink.com 1.10,2013-02-21 11:54:00,
2013-02-21 07:09:00,0.7,-4.0,30.44,WNW,297,1.0,7.0,82,0.00,,,0.00,weatherlink.com 1.10,2013-02-21 12:09:00,
2013-02-21 07:24:00,0.7,-4.0,30.45,WNW,288,0.0,4.0,82,0.00,,,0.00,weatherlink.com 1.10,2013-02-21 12:24:00,
2013-02-21 07:39:00,0.4,-4.0,30.45,NNW,330,3.0,5.0,83,0.00,,,0.00,weatherlink.com 1.10,2013-02-21 12:39:00,
2013-02-21 07:54:00,0.6,-3.0,30.46,WNW,283,1.0,5.0,83,0.00,,,0.00,weatherlink.com 1.10,2013-02-21 12:54:00,
2013-02-21 08:09:00,1.5,-3.0,30.46,NW,321,1.0,7.0,81,0.00,,,0.00,weatherlink.com 1.10,2013-02-21 13:09:00,
2013-02-21 08:24:00,2.0,-3.0,30.46,NNW,337,8.0,8.0,79,0.00,,,0.00,weatherlink.com 1.10,2013-02-21 13:24:00,
2013-02-21 08:39:00,2.4,-3.0,30.48,NNW,335,4.0,9.0,79,0.00,,,0.00,weatherlink.com 1.10,2013-02-21 13:39:00,
2013-02-21 08:54:00,3.5,-2.0,30.49,WNW,291,0.0,7.0,78,0.00,,,0.00,weatherlink.com 1.10,2013-02-21 13:54:00,
2013-02-21 09:09:00,4.7,-1.0,30.49,West,271,1.0,7.0,76,0.00,,,0.00,weatherlink.com 1.10,2013-02-21 14:09:00,
2013-02-21 09:24:00,5.3,-1.0,30.50,NNW,342,0.0,7.0,75,0.00,,,0.00,weatherlink.com 1.10,2013-02-21 14:24:00,
2013-02-21 09:39:00,5.6,0.0,30.50,NE,39,0.0,8.0,76,0.00,,,0.00,weatherlink.com 1.10,2013-02-21 14:39:00,
2013-02-21 09:54:00,6.4,0.0,30.49,NNE,21,2.0,6.0,74,0.00,,,0.00,weatherlink.com 1.10,2013-02-21 14:54:00,
2013-02-21 10:10:00,6.8,0.0,30.48,NE,41,2.0,5.0,74,0.00,,,0.00,weatherlink.com 1.10,2013-02-21 15:10:00,
2013-02-21 10:25:00,7.8,1.0,30.47,NNW,330,1.0,6.0,74,0.00,,,0.00,weatherlink.com 1.10,2013-02-21 15:25:00,
2013-02-21 10:40:00,8.9,2.0,30.46,North,11,4.0,6.0,73,0.00,,,0.00,weatherlink.com 1.10,2013-02-21 15:40:00,
2013-02-21 10:55:00,8.9,2.0,30.45,NE,50,2.0,7.0,72,0.00,,,0.00,weatherlink.com 1.10,2013-02-21 15:55:00,
2013-02-21 11:10:00,9.5,2.0,30.45,NNE,33,1.0,6.0,72,0.00,,,0.00,weatherlink.com 1.10,2013-02-21 16:10:00,
2013-02-21 11:25:00,10.1,2.0,30.45,NNW,337,3.0,5.0,71,0.00,,,0.00,weatherlink.com 1.10,2013-02-21 16:25:00,
2013-02-21 11:40:00,11.1,3.0,30.44,ENE,74,4.0,5.0,71,0.00,,,0.00,weatherlink.com 1.10,2013-02-21 16:40:00,
2013-02-21 11:55:00,11.6,4.0,30.43,NNE,20,4.0,7.0,71,0.00,,,0.00,weatherlink.com 1.10,2013-02-21 16:55:00,
2013-02-21 12:10:00,12.6,5.0,30.43,NNW,342,0.0,6.0,71,0.00,,,0.00,weatherlink.com 1.10,2013-02-21 17:10:00,
2013-02-21 12:25:00,13.9,5.0,30.43,North,351,2.0,4.0,69,0.00,,,0.00,weatherlink.com 1.10,2013-02-21 17:25:00,
2013-02-21 12:40:00,14.8,6.0,30.46,SW,235,2.0,2.0,68,0.00,,,0.00,weatherlink.com 1.10,2013-02-21 17:40:00,
2013-02-21 12:55:00,15.4,7.0,30.46,East,94,2.0,6.0,69,0.00,,,0.00,weatherlink.com 1.10,2013-02-21 17:55:00,
2013-02-21 13:11:00,16.7,7.0,30.45,NW,305,2.0,4.0,66,0.00,,,0.00,weatherlink.com 1.10,2013-02-21 18:11:00,
2013-02-21 13:26:00,17.2,8.0,30.45,West,273,3.0,5.0,66,0.00,,,0.00,weatherlink.com 1.10,2013-02-21 18:26:00,
2013-02-21 13:41:00,17.2,8.0,30.46,West,278,0.0,6.0,67,0.00,,,0.00,weatherlink.com 1.10,2013-02-21 18:41:00,
2013-02-21 13:56:00,18.2,9.0,30.46,NNW,335,0.0,6.0,66,0.00,,,0.00,weatherlink.com 1.10,2013-02-21 18:56:00,
2013-02-21 14:12:00,19.0,9.0,30.47,WNW,300,1.0,5.0,66,0.00,,,0.00,weatherlink.com 1.10,2013-02-21 19:12:00,
2013-02-21 14:26:00,19.2,10.0,30.48,West,271,2.0,8.0,66,0.00,,,0.00,weatherlink.com 1.10,2013-02-21 19:26:00,
2013-02-21 14:41:00,19.4,10.0,30.47,West,272,2.0,6.0,66,0.00,,,0.00,weatherlink.com 1.10,2013-02-21 19:41:00,
2013-02-21 14:56:00,19.9,11.0,30.48,East,84,0.0,3.0,67,0.00,,,0.00,weatherlink.com 1.10,2013-02-21 19:56:00,
2013-02-21 15:11:00,20.0,10.0,30.47,SW,235,0.0,6.0,66,0.00,,,0.00,weatherlink.com 1.10,2013-02-21 20:11:00,
2013-02-21 15:26:00,20.2,11.0,30.47,WNW,289,1.0,6.0,67,0.00,,,0.00,weatherlink.com 1.10,2013-02-21 20:26:00,
2013-02-21 15:41:00,21.1,12.0,30.46,NNW,336,1.0,4.0,67,0.00,,,0.00,weatherlink.com 1.10,2013-02-21 20:41:00,
2013-02-21 15:56:00,21.0,12.0,30.46,NW,321,1.0,5.0,68,0.00,,,0.00,weatherlink.com 1.10,2013-02-21 20:56:00,
2013-02-21 16:11:00,21.1,12.0,30.45,NNE,32,3.0,6.0,69,0.00,,,0.00,weatherlink.com 1.10,2013-02-21 21:11:00,
2013-02-21 16:26:00,20.8,12.0,30.45,North,349,3.0,9.0,69,0.00,,,0.00,weatherlink.com 1.10,2013-02-21 21:26:00,
2013-02-21 16:42:00,20.3,12.0,30.45,NNW,338,3.0,8.0,70,0.00,,,0.00,weatherlink.com 1.10,2013-02-21 21:42:00,
2013-02-21 16:57:00,19.9,12.0,30.44,NNW,340,0.0,6.0,70,0.00,,,0.00,weatherlink.com 1.10,2013-02-21 21:57:00,
2013-02-21 17:12:00,19.4,12.0,30.43,North,349,4.0,7.0,72,0.00,,,0.00,weatherlink.com 1.10,2013-02-21 22:12:00,
2013-02-21 17:27:00,19.2,12.0,30.42,NE,41,1.0,3.0,73,0.00,,,0.00,weatherlink.com 1.10,2013-02-21 22:27:00,
2013-02-21 17:42:00,18.9,12.0,30.43,North,6,1.0,3.0,75,0.00,,,0.00,weatherlink.com 1.10,2013-02-21 22:42:00,
2013-02-21 17:57:00,17.8,11.0,30.43,WNW,299,1.0,4.0,76,0.00,,,0.00,weatherlink.com 1.10,2013-02-21 22:57:00,
2013-02-21 18:12:00,17.0,11.0,30.45,NW,315,0.0,3.0,77,0.00,,,0.00,weatherlink.com 1.10,2013-02-21 23:12:00,
2013-02-21 18:27:00,16.0,11.0,30.46,WSW,245,0.0,1.0,80,0.00,,,0.00,weatherlink.com 1.10,2013-02-21 23:27:00,
2013-02-21 18:42:00,14.2,9.0,30.45,WSW,245,0.0,0.0,81,0.00,,,0.00,weatherlink.com 1.10,2013-02-21 23:42:00,
2013-02-21 18:57:00,13.4,9.0,30.45,WSW,245,0.0,1.0,84,0.00,,,0.00,weatherlink.com 1.10,2013-02-21 23:57:00,
2013-02-21 19:12:00,12.1,9.0,30.45,NW,322,0.0,0.0,85,0.00,,,0.00,weatherlink.com 1.10,2013-02-22 00:12:00,
2013-02-21 19:27:00,11.2,8.0,30.45,NW,322,0.0,0.0,86,0.00,,,0.00,weatherlink.com 1.10,2013-02-22 00:27:00,
2013-02-21 19:42:00,10.4,7.0,30.45,NW,322,0.0,0.0,87,0.00,,,0.00,weatherlink.com 1.10,2013-02-22 00:42:00,
2013-02-21 19:58:00,9.9,7.0,30.44,NW,322,0.0,0.0,88,0.00,,,0.00,weatherlink.com 1.10,2013-02-22 00:58:00,
2013-02-21 20:13:00,9.3,7.0,30.44,NW,322,0.0,0.0,90,0.00,,,0.00,weatherlink.com 1.10,2013-02-22 01:13:00,
2013-02-21 20:28:00,8.8,6.0,30.44,NW,319,0.0,0.0,89,0.00,,,0.00,weatherlink.com 1.10,2013-02-22 01:28:00,
2013-02-21 20:43:00,9.3,7.0,30.44,WNW,295,0.0,0.0,90,0.00,,,0.00,weatherlink.com 1.10,2013-02-22 01:43:00,
2013-02-21 20:58:00,9.0,7.0,30.43,WNW,297,0.0,1.0,90,0.00,,,0.00,weatherlink.com 1.10,2013-02-22 01:58:00,
2013-02-21 21:13:00,10.8,9.0,30.42,WNW,295,0.0,1.0,91,0.00,,,0.00,weatherlink.com 1.10,2013-02-22 02:13:00,
2013-02-21 21:28:00,11.4,9.0,30.42,NNE,16,0.0,1.0,89,0.00,,,0.00,weatherlink.com 1.10,2013-02-22 02:28:00,
2013-02-21 21:43:00,9.4,7.0,30.42,NNE,16,0.0,0.0,89,0.00,,,0.00,weatherlink.com 1.10,2013-02-22 02:43:00,
2013-02-21 21:58:00,9.6,7.0,30.42,NW,323,0.0,1.0,90,0.00,,,0.00,weatherlink.com 1.10,2013-02-22 02:58:00,
2013-02-21 22:13:00,9.8,8.0,30.42,NW,322,0.0,0.0,90,0.00,,,0.00,weatherlink.com 1.10,2013-02-22 03:13:00,
2013-02-21 22:28:00,8.9,6.0,30.42,NW,322,0.0,0.0,89,0.00,,,0.00,weatherlink.com 1.10,2013-02-22 03:28:00,
2013-02-21 22:43:00,8.0,6.0,30.43,NW,322,0.0,0.0,90,0.00,,,0.00,weatherlink.com 1.10,2013-02-22 03:43:00,
2013-02-21 22:58:00,7.5,6.0,30.43,NW,322,0.0,0.0,91,0.00,,,0.00,weatherlink.com 1.10,2013-02-22 03:58:00,
2013-02-21 23:14:00,6.7,5.0,30.43,NW,322,0.0,0.0,91,0.00,,,0.00,weatherlink.com 1.10,2013-02-22 04:14:00,
2013-02-21 23:29:00,7.4,6.0,30.43,NW,323,0.0,0.0,92,0.00,,,0.00,weatherlink.com 1.10,2013-02-22 04:29:00,
2013-02-21 23:44:00,8.3,7.0,30.43,North,359,0.0,1.0,93,0.00,,,0.00,weatherlink.com 1.10,2013-02-22 04:44:00,
2013-02-21 23:59:00,10.6,9.0,30.41,ESE,103,0.0,1.0,93,0.00,,,0.00,weatherlink.com 1.10,2013-02-22 04:59:00,